sensor_id;sensor_type;location;lat;lon;timestamp;P1;durP1;ratioP1;P2;durP2;ratioP2
77217;SDS011;66214;51.302;17.068;2023-11-22T00:00:53;159.30;;;42.30;;
77217;SDS011;66214;51.302;17.068;2023-11-22T00:03:34;102.80;;;25.10;;
77217;SDS011;66214;51.302;17.068;2023-11-22T00:06:04;166.20;;;39.00;;
77217;SDS011;66214;51.302;17.068;2023-11-22T00:08:32;161.40;;;39.20;;
77217;SDS011;66214;51.302;17.068;2023-11-22T00:11:01;76.20;;;19.30;;
77217;SDS011;66214;51.302;17.068;2023-11-22T00:13:29;202.30;;;50.70;;
77217;SDS011;66214;51.302;17.068;2023-11-22T00:15:57;186.20;;;43.90;;
77217;SDS011;66214;51.302;17.068;2023-11-22T00:18:25;182.10;;;44.70;;
77217;SDS011;66214;51.302;17.068;2023-11-22T00:20:53;160.90;;;41.50;;
77217;SDS011;66214;51.302;17.068;2023-11-22T00:23:22;188.30;;;48.00;;
77217;SDS011;66214;51.302;17.068;2023-11-22T00:25:55;156.10;;;41.20;;
77217;SDS011;66214;51.302;17.068;2023-11-22T00:28:24;177.60;;;42.80;;
77217;SDS011;66214;51.302;17.068;2023-11-22T00:30:52;133.90;;;35.00;;
77217;SDS011;66214;51.302;17.068;2023-11-22T00:33:21;129.80;;;30.80;;
77217;SDS011;66214;51.302;17.068;2023-11-22T00:35:49;109.50;;;27.70;;
77217;SDS011;66214;51.302;17.068;2023-11-22T00:38:17;166.30;;;42.50;;
77217;SDS011;66214;51.302;17.068;2023-11-22T00:40:45;155.90;;;38.50;;
77217;SDS011;66214;51.302;17.068;2023-11-22T00:43:13;177.80;;;44.00;;
77217;SDS011;66214;51.302;17.068;2023-11-22T00:49:08;103.70;;;25.30;;
77217;SDS011;66214;51.302;17.068;2023-11-22T00:51:36;132.60;;;37.10;;
77217;SDS011;66214;51.302;17.068;2023-11-22T00:54:05;210.50;;;45.70;;
77217;SDS011;66214;51.302;17.068;2023-11-22T00:56:33;117.60;;;30.70;;
77217;SDS011;66214;51.302;17.068;2023-11-22T00:59:01;130.30;;;31.50;;
77217;SDS011;66214;51.302;17.068;2023-11-22T01:01:31;179.20;;;41.80;;
77217;SDS011;66214;51.302;17.068;2023-11-22T01:03:59;163.80;;;42.40;;
77217;SDS011;66214;51.302;17.068;2023-11-22T01:06:27;103.70;;;24.20;;
77217;SDS011;66214;51.302;17.068;2023-11-22T01:08:56;147.80;;;36.90;;
77217;SDS011;66214;51.302;17.068;2023-11-22T01:11:24;130.90;;;29.40;;
77217;SDS011;66214;51.302;17.068;2023-11-22T01:13:53;108.00;;;26.30;;
77217;SDS011;66214;51.302;17.068;2023-11-22T01:16:21;145.50;;;36.00;;
77217;SDS011;66214;51.302;17.068;2023-11-22T01:18:50;188.00;;;48.90;;
77217;SDS011;66214;51.302;17.068;2023-11-22T01:21:20;103.60;;;26.00;;
77217;SDS011;66214;51.302;17.068;2023-11-22T01:23:48;130.40;;;33.70;;
77217;SDS011;66214;51.302;17.068;2023-11-22T01:26:16;171.50;;;43.90;;
77217;SDS011;66214;51.302;17.068;2023-11-22T01:28:44;152.40;;;38.10;;
77217;SDS011;66214;51.302;17.068;2023-11-22T01:31:12;144.30;;;36.80;;
77217;SDS011;66214;51.302;17.068;2023-11-22T01:33:41;173.30;;;44.30;;
77217;SDS011;66214;51.302;17.068;2023-11-22T01:36:09;137.50;;;35.60;;
77217;SDS011;66214;51.302;17.068;2023-11-22T01:38:37;177.80;;;43.30;;
77217;SDS011;66214;51.302;17.068;2023-11-22T01:41:07;135.50;;;31.40;;
77217;SDS011;66214;51.302;17.068;2023-11-22T01:43:35;173.00;;;42.50;;
77217;SDS011;66214;51.302;17.068;2023-11-22T01:46:03;141.80;;;36.20;;
77217;SDS011;66214;51.302;17.068;2023-11-22T01:48:31;128.80;;;34.10;;
77217;SDS011;66214;51.302;17.068;2023-11-22T01:51:00;162.20;;;43.90;;
77217;SDS011;66214;51.302;17.068;2023-11-22T01:53:28;150.80;;;37.50;;
77217;SDS011;66214;51.302;17.068;2023-11-22T01:55:58;121.70;;;31.80;;
77217;SDS011;66214;51.302;17.068;2023-11-22T01:58:26;84.20;;;24.00;;
77217;SDS011;66214;51.302;17.068;2023-11-22T02:00:54;107.20;;;24.50;;
77217;SDS011;66214;51.302;17.068;2023-11-22T02:03:22;142.00;;;34.10;;
77217;SDS011;66214;51.302;17.068;2023-11-22T02:05:50;98.30;;;26.20;;
77217;SDS011;66214;51.302;17.068;2023-11-22T02:08:18;140.60;;;32.40;;
77217;SDS011;66214;51.302;17.068;2023-11-22T02:10:57;127.70;;;34.40;;
77217;SDS011;66214;51.302;17.068;2023-11-22T02:13:26;135.70;;;35.00;;
77217;SDS011;66214;51.302;17.068;2023-11-22T02:15:54;127.30;;;32.30;;
77217;SDS011;66214;51.302;17.068;2023-11-22T02:18:26;126.60;;;31.00;;
77217;SDS011;66214;51.302;17.068;2023-11-22T02:20:55;161.20;;;39.70;;
77217;SDS011;66214;51.302;17.068;2023-11-22T02:23:23;142.80;;;34.60;;
77217;SDS011;66214;51.302;17.068;2023-11-22T02:25:51;158.70;;;40.90;;
77217;SDS011;66214;51.302;17.068;2023-11-22T02:28:20;171.00;;;41.90;;
77217;SDS011;66214;51.302;17.068;2023-11-22T02:30:47;164.50;;;38.70;;
77217;SDS011;66214;51.302;17.068;2023-11-22T02:33:15;72.90;;;19.30;;
77217;SDS011;66214;51.302;17.068;2023-11-22T02:35:44;124.10;;;31.80;;
77217;SDS011;66214;51.302;17.068;2023-11-22T02:38:11;112.00;;;26.30;;
77217;SDS011;66214;51.302;17.068;2023-11-22T02:40:39;148.50;;;38.20;;
77217;SDS011;66214;51.302;17.068;2023-11-22T02:43:07;160.30;;;40.20;;
77217;SDS011;66214;51.302;17.068;2023-11-22T02:45:37;181.40;;;45.10;;
77217;SDS011;66214;51.302;17.068;2023-11-22T02:48:06;131.60;;;30.10;;
77217;SDS011;66214;51.302;17.068;2023-11-22T02:50:37;130.40;;;30.30;;
77217;SDS011;66214;51.302;17.068;2023-11-22T02:53:05;35.80;;;13.00;;
77217;SDS011;66214;51.302;17.068;2023-11-22T02:55:33;113.70;;;31.10;;
77217;SDS011;66214;51.302;17.068;2023-11-22T02:58:01;125.70;;;32.20;;
77217;SDS011;66214;51.302;17.068;2023-11-22T03:00:30;112.10;;;31.60;;
77217;SDS011;66214;51.302;17.068;2023-11-22T03:02:57;60.90;;;17.00;;
77217;SDS011;66214;51.302;17.068;2023-11-22T03:05:26;102.60;;;24.50;;
77217;SDS011;66214;51.302;17.068;2023-11-22T03:07:54;122.60;;;33.10;;
77217;SDS011;66214;51.302;17.068;2023-11-22T03:10:21;73.20;;;20.50;;
77217;SDS011;66214;51.302;17.068;2023-11-22T03:12:49;76.90;;;21.70;;
77217;SDS011;66214;51.302;17.068;2023-11-22T03:15:18;63.40;;;18.20;;
77217;SDS011;66214;51.302;17.068;2023-11-22T03:17:45;97.20;;;27.70;;
77217;SDS011;66214;51.302;17.068;2023-11-22T03:20:16;47.30;;;14.90;;
77217;SDS011;66214;51.302;17.068;2023-11-22T03:22:44;81.50;;;20.80;;
77217;SDS011;66214;51.302;17.068;2023-11-22T03:25:12;99.60;;;25.40;;
77217;SDS011;66214;51.302;17.068;2023-11-22T03:27:41;59.50;;;16.80;;
77217;SDS011;66214;51.302;17.068;2023-11-22T03:30:10;103.10;;;30.90;;
77217;SDS011;66214;51.302;17.068;2023-11-22T03:32:39;120.30;;;35.00;;
77217;SDS011;66214;51.302;17.068;2023-11-22T03:35:08;133.20;;;36.20;;
77217;SDS011;66214;51.302;17.068;2023-11-22T03:37:37;86.20;;;22.30;;
77217;SDS011;66214;51.302;17.068;2023-11-22T03:40:06;118.60;;;32.30;;
77217;SDS011;66214;51.302;17.068;2023-11-22T03:42:38;106.50;;;31.00;;
77217;SDS011;66214;51.302;17.068;2023-11-22T03:45:06;56.60;;;15.20;;
77217;SDS011;66214;51.302;17.068;2023-11-22T03:47:35;90.90;;;24.20;;
77217;SDS011;66214;51.302;17.068;2023-11-22T03:50:06;56.90;;;16.40;;
77217;SDS011;66214;51.302;17.068;2023-11-22T03:52:35;52.80;;;15.70;;
77217;SDS011;66214;51.302;17.068;2023-11-22T03:55:04;98.00;;;27.00;;
77217;SDS011;66214;51.302;17.068;2023-11-22T03:57:33;90.40;;;27.00;;
77217;SDS011;66214;51.302;17.068;2023-11-22T04:00:01;101.70;;;29.90;;
77217;SDS011;66214;51.302;17.068;2023-11-22T04:02:29;86.60;;;26.80;;
77217;SDS011;66214;51.302;17.068;2023-11-22T04:04:57;95.20;;;28.20;;
77217;SDS011;66214;51.302;17.068;2023-11-22T04:07:25;67.70;;;19.60;;
77217;SDS011;66214;51.302;17.068;2023-11-22T04:09:53;67.40;;;19.10;;
77217;SDS011;66214;51.302;17.068;2023-11-22T04:12:21;54.20;;;16.20;;
77217;SDS011;66214;51.302;17.068;2023-11-22T04:14:50;34.70;;;10.40;;
77217;SDS011;66214;51.302;17.068;2023-11-22T04:17:19;63.60;;;16.70;;
77217;SDS011;66214;51.302;17.068;2023-11-22T04:19:47;36.40;;;11.10;;
77217;SDS011;66214;51.302;17.068;2023-11-22T04:22:15;55.50;;;17.20;;
77217;SDS011;66214;51.302;17.068;2023-11-22T04:24:43;58.00;;;16.10;;
77217;SDS011;66214;51.302;17.068;2023-11-22T04:27:11;79.20;;;23.70;;
77217;SDS011;66214;51.302;17.068;2023-11-22T04:29:39;91.40;;;28.90;;
77217;SDS011;66214;51.302;17.068;2023-11-22T04:32:07;71.90;;;21.50;;
77217;SDS011;66214;51.302;17.068;2023-11-22T04:34:35;60.60;;;20.40;;
77217;SDS011;66214;51.302;17.068;2023-11-22T04:37:03;83.60;;;24.20;;
77217;SDS011;66214;51.302;17.068;2023-11-22T04:39:33;47.10;;;12.40;;
77217;SDS011;66214;51.302;17.068;2023-11-22T04:42:01;95.40;;;24.90;;
77217;SDS011;66214;51.302;17.068;2023-11-22T04:44:29;76.50;;;19.80;;
77217;SDS011;66214;51.302;17.068;2023-11-22T04:46:57;50.20;;;13.70;;
77217;SDS011;66214;51.302;17.068;2023-11-22T04:49:27;60.70;;;15.70;;
77217;SDS011;66214;51.302;17.068;2023-11-22T04:51:55;78.10;;;22.70;;
77217;SDS011;66214;51.302;17.068;2023-11-22T04:54:23;86.20;;;24.60;;
77217;SDS011;66214;51.302;17.068;2023-11-22T04:56:51;24.40;;;7.80;;
77217;SDS011;66214;51.302;17.068;2023-11-22T04:59:19;90.70;;;25.30;;
77217;SDS011;66214;51.302;17.068;2023-11-22T05:03:56;63.50;;;18.10;;
77217;SDS011;66214;51.302;17.068;2023-11-22T05:06:24;88.70;;;24.70;;
77217;SDS011;66214;51.302;17.068;2023-11-22T05:08:54;62.10;;;18.90;;
77217;SDS011;66214;51.302;17.068;2023-11-22T05:11:22;57.20;;;14.50;;
77217;SDS011;66214;51.302;17.068;2023-11-22T05:13:50;81.60;;;24.10;;
77217;SDS011;66214;51.302;17.068;2023-11-22T05:16:18;59.90;;;14.90;;
77217;SDS011;66214;51.302;17.068;2023-11-22T05:18:46;102.70;;;28.40;;
77217;SDS011;66214;51.302;17.068;2023-11-22T05:21:14;58.70;;;15.20;;
77217;SDS011;66214;51.302;17.068;2023-11-22T05:23:42;92.30;;;29.30;;
77217;SDS011;66214;51.302;17.068;2023-11-22T05:26:10;90.80;;;27.00;;
77217;SDS011;66214;51.302;17.068;2023-11-22T05:28:38;89.40;;;24.90;;
77217;SDS011;66214;51.302;17.068;2023-11-22T05:31:06;85.10;;;24.40;;
77217;SDS011;66214;51.302;17.068;2023-11-22T05:33:34;75.60;;;22.50;;
77217;SDS011;66214;51.302;17.068;2023-11-22T05:36:03;98.50;;;28.10;;
77217;SDS011;66214;51.302;17.068;2023-11-22T05:38:31;39.80;;;11.60;;
77217;SDS011;66214;51.302;17.068;2023-11-22T05:41:01;50.20;;;13.80;;
77217;SDS011;66214;51.302;17.068;2023-11-22T05:43:29;57.20;;;17.50;;
77217;SDS011;66214;51.302;17.068;2023-11-22T05:45:58;95.50;;;27.40;;
77217;SDS011;66214;51.302;17.068;2023-11-22T05:51:53;93.00;;;26.50;;
77217;SDS011;66214;51.302;17.068;2023-11-22T05:54:21;95.20;;;27.70;;
77217;SDS011;66214;51.302;17.068;2023-11-22T05:56:49;99.70;;;28.20;;
77217;SDS011;66214;51.302;17.068;2023-11-22T05:59:17;79.90;;;24.70;;
77217;SDS011;66214;51.302;17.068;2023-11-22T06:01:45;73.00;;;22.90;;
77217;SDS011;66214;51.302;17.068;2023-11-22T06:04:13;84.70;;;25.10;;
77217;SDS011;66214;51.302;17.068;2023-11-22T06:06:41;76.80;;;22.80;;
77217;SDS011;66214;51.302;17.068;2023-11-22T06:09:10;82.50;;;24.50;;
77217;SDS011;66214;51.302;17.068;2023-11-22T06:11:42;83.00;;;24.30;;
77217;SDS011;66214;51.302;17.068;2023-11-22T06:14:10;48.00;;;14.60;;
77217;SDS011;66214;51.302;17.068;2023-11-22T06:16:38;75.50;;;23.00;;
77217;SDS011;66214;51.302;17.068;2023-11-22T06:19:06;69.00;;;20.30;;
77217;SDS011;66214;51.302;17.068;2023-11-22T06:21:35;92.80;;;29.90;;
77217;SDS011;66214;51.302;17.068;2023-11-22T06:27:16;65.70;;;18.40;;
77217;SDS011;66214;51.302;17.068;2023-11-22T06:29:44;61.40;;;18.40;;
77217;SDS011;66214;51.302;17.068;2023-11-22T06:32:12;71.20;;;20.70;;
77217;SDS011;66214;51.302;17.068;2023-11-22T06:34:40;97.20;;;27.50;;
77217;SDS011;66214;51.302;17.068;2023-11-22T06:37:08;113.10;;;34.00;;
77217;SDS011;66214;51.302;17.068;2023-11-22T06:39:36;102.10;;;30.80;;
77217;SDS011;66214;51.302;17.068;2023-11-22T06:42:05;30.90;;;10.10;;
77217;SDS011;66214;51.302;17.068;2023-11-22T06:44:34;56.20;;;18.20;;
77217;SDS011;66214;51.302;17.068;2023-11-22T06:47:02;96.50;;;30.50;;
77217;SDS011;66214;51.302;17.068;2023-11-22T06:49:30;87.50;;;27.90;;
77217;SDS011;66214;51.302;17.068;2023-11-22T06:51:58;74.40;;;24.30;;
77217;SDS011;66214;51.302;17.068;2023-11-22T06:54:26;60.20;;;17.30;;
77217;SDS011;66214;51.302;17.068;2023-11-22T06:56:54;91.40;;;26.90;;
77217;SDS011;66214;51.302;17.068;2023-11-22T06:59:23;79.80;;;23.10;;
77217;SDS011;66214;51.302;17.068;2023-11-22T07:01:51;67.50;;;22.20;;
77217;SDS011;66214;51.302;17.068;2023-11-22T07:04:19;77.50;;;23.90;;
77217;SDS011;66214;51.302;17.068;2023-11-22T07:06:47;73.70;;;23.50;;
77217;SDS011;66214;51.302;17.068;2023-11-22T07:09:15;78.10;;;20.90;;
77217;SDS011;66214;51.302;17.068;2023-11-22T07:11:43;84.40;;;24.90;;
77217;SDS011;66214;51.302;17.068;2023-11-22T07:14:12;48.90;;;14.80;;
77217;SDS011;66214;51.302;17.068;2023-11-22T07:16:40;46.70;;;13.40;;
77217;SDS011;66214;51.302;17.068;2023-11-22T07:19:08;78.40;;;22.70;;
77217;SDS011;66214;51.302;17.068;2023-11-22T07:21:36;78.00;;;22.00;;
77217;SDS011;66214;51.302;17.068;2023-11-22T07:24:06;75.50;;;21.60;;
77217;SDS011;66214;51.302;17.068;2023-11-22T07:26:34;84.90;;;25.30;;
77217;SDS011;66214;51.302;17.068;2023-11-22T07:29:02;45.00;;;13.90;;
77217;SDS011;66214;51.302;17.068;2023-11-22T07:31:31;83.80;;;26.60;;
77217;SDS011;66214;51.302;17.068;2023-11-22T07:34:00;68.80;;;22.40;;
77217;SDS011;66214;51.302;17.068;2023-11-22T07:36:29;82.40;;;22.40;;
77217;SDS011;66214;51.302;17.068;2023-11-22T07:38:58;59.20;;;18.60;;
77217;SDS011;66214;51.302;17.068;2023-11-22T07:41:27;77.10;;;22.70;;
77217;SDS011;66214;51.302;17.068;2023-11-22T07:43:55;73.40;;;24.50;;
77217;SDS011;66214;51.302;17.068;2023-11-22T07:46:23;77.10;;;22.60;;
77217;SDS011;66214;51.302;17.068;2023-11-22T07:48:51;84.70;;;25.90;;
77217;SDS011;66214;51.302;17.068;2023-11-22T07:51:19;94.00;;;30.80;;
77217;SDS011;66214;51.302;17.068;2023-11-22T07:53:48;72.80;;;23.30;;
77217;SDS011;66214;51.302;17.068;2023-11-22T07:56:19;98.80;;;31.00;;
77217;SDS011;66214;51.302;17.068;2023-11-22T07:58:49;101.90;;;30.20;;
77217;SDS011;66214;51.302;17.068;2023-11-22T08:01:17;60.40;;;18.00;;
77217;SDS011;66214;51.302;17.068;2023-11-22T08:03:46;75.10;;;22.80;;
77217;SDS011;66214;51.302;17.068;2023-11-22T08:06:15;80.70;;;23.90;;
77217;SDS011;66214;51.302;17.068;2023-11-22T08:08:44;90.20;;;29.00;;
77217;SDS011;66214;51.302;17.068;2023-11-22T08:11:13;92.20;;;28.60;;
77217;SDS011;66214;51.302;17.068;2023-11-22T08:13:45;87.50;;;26.30;;
77217;SDS011;66214;51.302;17.068;2023-11-22T08:16:15;71.90;;;21.90;;
77217;SDS011;66214;51.302;17.068;2023-11-22T08:18:43;88.20;;;27.70;;
77217;SDS011;66214;51.302;17.068;2023-11-22T08:21:11;87.40;;;26.20;;
77217;SDS011;66214;51.302;17.068;2023-11-22T08:23:40;94.60;;;26.70;;
77217;SDS011;66214;51.302;17.068;2023-11-22T11:04:01;50.30;;;21.00;;
77217;SDS011;66214;51.302;17.068;2023-11-22T11:06:35;49.80;;;22.70;;
77217;SDS011;66214;51.302;17.068;2023-11-22T11:09:05;35.50;;;15.60;;
77217;SDS011;66214;51.302;17.068;2023-11-22T11:11:35;31.40;;;17.10;;
77217;SDS011;66214;51.302;17.068;2023-11-22T11:14:05;32.80;;;15.90;;
77217;SDS011;66214;51.302;17.068;2023-11-22T11:16:38;31.50;;;15.70;;
77217;SDS011;66214;51.302;17.068;2023-11-22T11:19:16;39.80;;;18.20;;
77217;SDS011;66214;51.302;17.068;2023-11-22T11:21:49;38.70;;;17.50;;
77217;SDS011;66214;51.302;17.068;2023-11-22T11:24:18;42.30;;;19.50;;
77217;SDS011;66214;51.302;17.068;2023-11-22T11:26:50;53.90;;;21.80;;
77217;SDS011;66214;51.302;17.068;2023-11-22T11:32:52;40.20;;;18.80;;
77217;SDS011;66214;51.302;17.068;2023-11-22T11:35:37;63.20;;;28.20;;
77217;SDS011;66214;51.302;17.068;2023-11-22T11:38:14;73.70;;;29.40;;
77217;SDS011;66214;51.302;17.068;2023-11-22T11:40:45;54.50;;;22.50;;
77217;SDS011;66214;51.302;17.068;2023-11-22T11:43:13;48.30;;;19.90;;
77217;SDS011;66214;51.302;17.068;2023-11-22T11:45:42;52.60;;;20.90;;
77217;SDS011;66214;51.302;17.068;2023-11-22T11:48:17;62.50;;;25.60;;
77217;SDS011;66214;51.302;17.068;2023-11-22T11:50:46;52.90;;;18.50;;
77217;SDS011;66214;51.302;17.068;2023-11-22T11:53:13;54.30;;;19.70;;
77217;SDS011;66214;51.302;17.068;2023-11-22T11:55:46;61.30;;;23.70;;
77217;SDS011;66214;51.302;17.068;2023-11-22T11:58:13;63.70;;;25.50;;
77217;SDS011;66214;51.302;17.068;2023-11-22T12:00:41;59.80;;;23.60;;
77217;SDS011;66214;51.302;17.068;2023-11-22T12:03:08;62.40;;;24.30;;
77217;SDS011;66214;51.302;17.068;2023-11-22T12:05:37;62.10;;;25.50;;
77217;SDS011;66214;51.302;17.068;2023-11-22T12:08:05;62.40;;;23.80;;
77217;SDS011;66214;51.302;17.068;2023-11-22T12:10:32;65.00;;;23.80;;
77217;SDS011;66214;51.302;17.068;2023-11-22T12:12:59;69.70;;;27.20;;
77217;SDS011;66214;51.302;17.068;2023-11-22T12:15:26;70.60;;;26.30;;
77217;SDS011;66214;51.302;17.068;2023-11-22T12:17:55;70.60;;;25.70;;
77217;SDS011;66214;51.302;17.068;2023-11-22T12:20:23;71.30;;;28.20;;
77217;SDS011;66214;51.302;17.068;2023-11-22T12:22:52;58.80;;;20.70;;
77217;SDS011;66214;51.302;17.068;2023-11-22T12:25:19;40.40;;;14.70;;
77217;SDS011;66214;51.302;17.068;2023-11-22T12:27:47;64.40;;;24.10;;
77217;SDS011;66214;51.302;17.068;2023-11-22T12:33:53;66.40;;;24.60;;
77217;SDS011;66214;51.302;17.068;2023-11-22T12:36:21;63.80;;;24.60;;
77217;SDS011;66214;51.302;17.068;2023-11-22T12:38:49;62.80;;;23.10;;
77217;SDS011;66214;51.302;17.068;2023-11-22T12:41:19;65.60;;;24.80;;
77217;SDS011;66214;51.302;17.068;2023-11-22T12:44:02;62.30;;;22.10;;
77217;SDS011;66214;51.302;17.068;2023-11-22T12:49:17;54.90;;;20.10;;
77217;SDS011;66214;51.302;17.068;2023-11-22T12:51:52;54.90;;;19.00;;
77217;SDS011;66214;51.302;17.068;2023-11-22T12:54:21;71.50;;;24.20;;
77217;SDS011;66214;51.302;17.068;2023-11-22T12:56:51;70.20;;;24.40;;
77217;SDS011;66214;51.302;17.068;2023-11-22T12:59:28;72.10;;;25.20;;
77217;SDS011;66214;51.302;17.068;2023-11-22T13:05:17;79.60;;;27.00;;
77217;SDS011;66214;51.302;17.068;2023-11-22T13:07:48;75.30;;;27.10;;
77217;SDS011;66214;51.302;17.068;2023-11-22T13:10:18;68.20;;;23.50;;
77217;SDS011;66214;51.302;17.068;2023-11-22T13:12:53;88.10;;;29.90;;
77217;SDS011;66214;51.302;17.068;2023-11-22T13:15:22;74.90;;;29.10;;
77217;SDS011;66214;51.302;17.068;2023-11-22T13:17:57;84.60;;;29.80;;
77217;SDS011;66214;51.302;17.068;2023-11-22T13:20:27;74.10;;;22.70;;
77217;SDS011;66214;51.302;17.068;2023-11-22T13:22:58;72.80;;;24.20;;
77217;SDS011;66214;51.302;17.068;2023-11-22T13:25:46;70.20;;;19.50;;
77217;SDS011;66214;51.302;17.068;2023-11-22T13:28:14;71.20;;;23.80;;
77217;SDS011;66214;51.302;17.068;2023-11-22T13:30:42;72.70;;;26.60;;
77217;SDS011;66214;51.302;17.068;2023-11-22T13:33:10;73.80;;;23.90;;
77217;SDS011;66214;51.302;17.068;2023-11-22T13:35:39;78.90;;;26.90;;
77217;SDS011;66214;51.302;17.068;2023-11-22T13:38:09;73.80;;;23.40;;
77217;SDS011;66214;51.302;17.068;2023-11-22T13:40:40;80.60;;;24.60;;
77217;SDS011;66214;51.302;17.068;2023-11-22T13:43:08;71.40;;;22.90;;
77217;SDS011;66214;51.302;17.068;2023-11-22T13:45:37;77.90;;;26.00;;
77217;SDS011;66214;51.302;17.068;2023-11-22T13:48:08;56.50;;;19.10;;
77217;SDS011;66214;51.302;17.068;2023-11-22T13:50:39;74.10;;;23.50;;
77217;SDS011;66214;51.302;17.068;2023-11-22T13:53:07;73.10;;;22.60;;
77217;SDS011;66214;51.302;17.068;2023-11-22T13:55:38;79.00;;;25.40;;
77217;SDS011;66214;51.302;17.068;2023-11-22T13:58:06;77.30;;;25.80;;
77217;SDS011;66214;51.302;17.068;2023-11-22T14:00:36;78.70;;;23.50;;
77217;SDS011;66214;51.302;17.068;2023-11-22T14:03:06;87.60;;;30.30;;
77217;SDS011;66214;51.302;17.068;2023-11-22T14:05:36;91.40;;;30.10;;
77217;SDS011;66214;51.302;17.068;2023-11-22T14:08:05;82.10;;;27.80;;
77217;SDS011;66214;51.302;17.068;2023-11-22T14:10:34;77.10;;;27.10;;
77217;SDS011;66214;51.302;17.068;2023-11-22T14:13:02;99.70;;;35.00;;
77217;SDS011;66214;51.302;17.068;2023-11-22T14:15:32;93.70;;;33.70;;
77217;SDS011;66214;51.302;17.068;2023-11-22T14:18:01;86.50;;;29.60;;
77217;SDS011;66214;51.302;17.068;2023-11-22T14:20:34;99.20;;;33.40;;
77217;SDS011;66214;51.302;17.068;2023-11-22T14:23:03;99.30;;;31.80;;
77217;SDS011;66214;51.302;17.068;2023-11-22T14:25:31;98.50;;;31.10;;
77217;SDS011;66214;51.302;17.068;2023-11-22T14:28:00;93.90;;;31.00;;
77217;SDS011;66214;51.302;17.068;2023-11-22T14:30:28;96.20;;;32.20;;
77217;SDS011;66214;51.302;17.068;2023-11-22T14:36:32;100.40;;;36.80;;
77217;SDS011;66214;51.302;17.068;2023-11-22T14:39:00;106.70;;;36.70;;
77217;SDS011;66214;51.302;17.068;2023-11-22T14:41:28;136.90;;;53.80;;
77217;SDS011;66214;51.302;17.068;2023-11-22T14:43:57;115.70;;;41.30;;
77217;SDS011;66214;51.302;17.068;2023-11-22T14:46:25;103.10;;;36.90;;
77217;SDS011;66214;51.302;17.068;2023-11-22T14:48:53;102.80;;;37.10;;
77217;SDS011;66214;51.302;17.068;2023-11-22T14:51:21;121.10;;;45.20;;
77217;SDS011;66214;51.302;17.068;2023-11-22T14:53:49;119.80;;;44.80;;
77217;SDS011;66214;51.302;17.068;2023-11-22T14:56:17;153.20;;;55.30;;
77217;SDS011;66214;51.302;17.068;2023-11-22T14:58:46;160.60;;;58.30;;
77217;SDS011;66214;51.302;17.068;2023-11-22T15:01:22;134.60;;;50.40;;
77217;SDS011;66214;51.302;17.068;2023-11-22T15:03:54;105.50;;;38.10;;
77217;SDS011;66214;51.302;17.068;2023-11-22T15:06:22;103.10;;;36.10;;
77217;SDS011;66214;51.302;17.068;2023-11-22T15:08:50;79.90;;;26.10;;
77217;SDS011;66214;51.302;17.068;2023-11-22T15:11:20;77.60;;;26.00;;
77217;SDS011;66214;51.302;17.068;2023-11-22T15:13:49;73.80;;;24.40;;
77217;SDS011;66214;51.302;17.068;2023-11-22T15:16:18;72.60;;;25.10;;
77217;SDS011;66214;51.302;17.068;2023-11-22T15:18:46;94.40;;;29.90;;
77217;SDS011;66214;51.302;17.068;2023-11-22T15:21:14;143.20;;;55.40;;
77217;SDS011;66214;51.302;17.068;2023-11-22T15:23:42;140.30;;;52.00;;
77217;SDS011;66214;51.302;17.068;2023-11-22T15:26:10;141.30;;;51.70;;
77217;SDS011;66214;51.302;17.068;2023-11-22T15:28:41;139.20;;;51.40;;
77217;SDS011;66214;51.302;17.068;2023-11-22T15:31:09;145.00;;;54.00;;
77217;SDS011;66214;51.302;17.068;2023-11-22T15:33:38;123.70;;;49.90;;
77217;SDS011;66214;51.302;17.068;2023-11-22T15:36:07;154.20;;;59.90;;
77217;SDS011;66214;51.302;17.068;2023-11-22T15:38:35;209.00;;;78.60;;
77217;SDS011;66214;51.302;17.068;2023-11-22T15:41:06;168.90;;;59.90;;
77217;SDS011;66214;51.302;17.068;2023-11-22T15:43:35;156.70;;;59.90;;
77217;SDS011;66214;51.302;17.068;2023-11-22T15:46:03;249.00;;;104.90;;
77217;SDS011;66214;51.302;17.068;2023-11-22T15:48:32;200.90;;;79.40;;
77217;SDS011;66214;51.302;17.068;2023-11-22T15:51:01;218.70;;;72.30;;
77217;SDS011;66214;51.302;17.068;2023-11-22T15:53:30;265.50;;;84.80;;
77217;SDS011;66214;51.302;17.068;2023-11-22T15:55:58;277.00;;;90.70;;
77217;SDS011;66214;51.302;17.068;2023-11-22T15:58:26;241.60;;;79.50;;
77217;SDS011;66214;51.302;17.068;2023-11-22T16:00:54;147.70;;;47.30;;
77217;SDS011;66214;51.302;17.068;2023-11-22T16:03:24;304.30;;;103.60;;
77217;SDS011;66214;51.302;17.068;2023-11-22T16:05:55;194.80;;;65.30;;
77217;SDS011;66214;51.302;17.068;2023-11-22T16:08:23;170.90;;;58.60;;
77217;SDS011;66214;51.302;17.068;2023-11-22T16:10:53;164.90;;;55.90;;
77217;SDS011;66214;51.302;17.068;2023-11-22T16:13:21;270.70;;;90.80;;
77217;SDS011;66214;51.302;17.068;2023-11-22T16:15:49;202.80;;;70.50;;
77217;SDS011;66214;51.302;17.068;2023-11-22T16:18:19;184.70;;;65.60;;
77217;SDS011;66214;51.302;17.068;2023-11-22T16:20:56;160.30;;;55.30;;
77217;SDS011;66214;51.302;17.068;2023-11-22T16:23:24;202.40;;;76.00;;
77217;SDS011;66214;51.302;17.068;2023-11-22T16:25:52;200.40;;;71.40;;
77217;SDS011;66214;51.302;17.068;2023-11-22T16:28:21;184.30;;;65.20;;
77217;SDS011;66214;51.302;17.068;2023-11-22T16:30:49;182.10;;;61.10;;
77217;SDS011;66214;51.302;17.068;2023-11-22T16:33:17;173.30;;;58.10;;
77217;SDS011;66214;51.302;17.068;2023-11-22T16:35:45;199.20;;;65.80;;
77217;SDS011;66214;51.302;17.068;2023-11-22T16:38:14;132.30;;;45.00;;
77217;SDS011;66214;51.302;17.068;2023-11-22T16:44:03;178.50;;;63.50;;
77217;SDS011;66214;51.302;17.068;2023-11-22T16:46:32;163.50;;;60.90;;
77217;SDS011;66214;51.302;17.068;2023-11-22T16:49:04;155.30;;;50.80;;
77217;SDS011;66214;51.302;17.068;2023-11-22T16:51:35;214.00;;;76.00;;
77217;SDS011;66214;51.302;17.068;2023-11-22T16:54:04;273.80;;;93.50;;
77217;SDS011;66214;51.302;17.068;2023-11-22T16:56:32;239.00;;;85.50;;
77217;SDS011;66214;51.302;17.068;2023-11-22T16:59:01;247.20;;;90.50;;
77217;SDS011;66214;51.302;17.068;2023-11-22T17:03:59;217.70;;;80.60;;
77217;SDS011;66214;51.302;17.068;2023-11-22T17:06:27;221.50;;;76.20;;
77217;SDS011;66214;51.302;17.068;2023-11-22T17:08:55;221.40;;;69.70;;
77217;SDS011;66214;51.302;17.068;2023-11-22T17:11:23;203.20;;;67.80;;
77217;SDS011;66214;51.302;17.068;2023-11-22T17:13:51;210.50;;;69.50;;
77217;SDS011;66214;51.302;17.068;2023-11-22T17:16:19;213.00;;;69.80;;
77217;SDS011;66214;51.302;17.068;2023-11-22T17:18:47;196.90;;;67.00;;
77217;SDS011;66214;51.302;17.068;2023-11-22T17:21:15;249.80;;;78.20;;
77217;SDS011;66214;51.302;17.068;2023-11-22T17:23:44;252.20;;;86.80;;
77217;SDS011;66214;51.302;17.068;2023-11-22T17:26:13;248.90;;;87.30;;